Portada
METAR-TAF:

METAR-TAF

Aeroports :

Kingston, Jamaica

latitud: 17-56N, longitud: 076-47W, altitud: 3 m

Observació

L'informe es va fer fa 31 minuts, a les 16:20 UTC
Vent 18 kt del Sud-Est amb ràfegues de 28 kt
Temperatura 31°C
Humitat 55%
Pressió 1016 hPa
Visibilitat 10 km o més
Núvols disperses a una alçada de 2200 ft

METAR: MKJP 181620Z 14018G28KT 9999 SCT022 31/21 Q1016

Hora: 11:51 (16:51 UTC)

Pronòstic

L'informe es va fer fa 5 hores i 36 minuts, a les 11:15 UTC
Pronòstic vàlid del 18 a les 12 UTC al 19 a les 12 UTC
Vent 5 kt del Nord
Visibilitat 10 km o més
Escasses núvols a una alçada de 2200 ft
Evolucionant progressivament
l' 18 a les 14 UTC al 18 a les 16 UTC
Vent 20 kt del Sud-Est
Evolucionant progressivament
l' 19 a les 01 UTC al 19 a les 03 UTC
Vent 5 kt del Nord

TAF: MKJP 181115Z 1812/1912 35005KT 9999 FEW022 BECMG 1814/1816 14020KT BECMG 1901/1903 35005KT

Observacions i pronòstics meteorològics de més de 4000 aeroports (METAR i TAF).

Les estacions disponibles són els punts grocs i vermells al mapa.

Posi el ratolí al punt desitjat per veure el nom de l'estació.

Feu clic per veure les observacions i els pronòstics meteorològics.

Per canviar el mapa: feu clic els botons verds amb una creu de color negre per apropar; al botó verd amb un guió per allunyar la imatge; o en les fletxes verdes per a mapes adjacents.


METAR-TAF: